createdAt,value
2019-03-15T00:00:06.201Z,7.87
2019-03-15T00:01:06.201Z,7.98
2019-03-15T00:02:59.096Z,7.98
2019-03-15T00:03:59.106Z,8.00
2019-03-15T00:05:52.504Z,8.01
2019-03-15T00:06:52.509Z,8.00
2019-03-15T00:08:45.405Z,7.98
2019-03-15T00:09:45.414Z,8.01
2019-03-15T00:11:38.322Z,8.07
2019-03-15T00:12:38.324Z,8.02
2019-03-15T00:14:31.225Z,8.00
2019-03-15T00:15:31.230Z,8.01
2019-03-15T00:17:24.618Z,7.97
2019-03-15T00:18:24.630Z,7.95
2019-03-15T00:20:17.537Z,7.89
2019-03-15T00:21:17.538Z,7.97
2019-03-15T00:23:10.435Z,7.92
2019-03-15T00:24:10.444Z,7.82
2019-03-15T00:26:03.841Z,7.86
2019-03-15T00:27:03.844Z,7.82
2019-03-15T00:28:56.743Z,7.82
2019-03-15T00:29:56.753Z,7.83
2019-03-15T00:31:49.659Z,7.72
2019-03-15T00:32:49.662Z,7.77
2019-03-15T00:34:42.820Z,7.77
2019-03-15T00:35:42.568Z,7.82
2019-03-15T00:37:35.463Z,7.72
2019-03-15T00:38:35.474Z,7.71
2019-03-15T00:40:28.872Z,7.64
2019-03-15T00:41:28.875Z,7.74
2019-03-15T00:43:21.770Z,7.67
2019-03-15T00:44:21.779Z,7.69
2019-03-15T00:46:14.685Z,7.67
2019-03-15T00:47:14.688Z,7.67
2019-03-15T00:49:07.585Z,7.68
2019-03-15T00:50:07.594Z,7.61
2019-03-15T00:52:00.669Z,7.64
2019-03-15T00:53:00.504Z,7.68
2019-03-15T00:54:53.902Z,7.77
2019-03-15T00:55:53.905Z,7.61
2019-03-15T00:57:46.801Z,7.74
2019-03-15T00:58:46.811Z,7.79
2019-03-15T01:00:40.208Z,7.72
2019-03-15T01:01:40.211Z,7.72
2019-03-15T01:03:33.603Z,7.74
2019-03-15T01:04:33.613Z,7.82
2019-03-15T01:06:26.516Z,7.68
2019-03-15T01:07:26.521Z,7.69
2019-03-15T01:09:19.420Z,7.79
2019-03-15T01:10:19.428Z,7.82
2019-03-15T01:12:12.331Z,7.83
2019-03-15T01:13:12.331Z,7.86
2019-03-15T01:15:05.237Z,7.83
2019-03-15T01:16:05.239Z,7.77
2019-03-15T01:17:58.630Z,7.87
2019-03-15T01:18:58.640Z,7.86
2019-03-15T01:20:51.544Z,7.79
2019-03-15T01:21:51.545Z,7.80
2019-03-15T01:23:44.443Z,7.85
2019-03-15T01:24:44.455Z,7.80
2019-03-15T01:26:37.359Z,7.68
2019-03-15T01:27:37.361Z,7.75
2019-03-15T01:29:30.259Z,7.69
2019-03-15T01:30:30.275Z,7.74
2019-03-15T01:32:23.170Z,7.74
2019-03-15T01:33:23.176Z,7.72
2019-03-15T01:35:16.076Z,7.75
2019-03-15T01:36:16.082Z,7.61
2019-03-15T01:38:08.974Z,7.74
2019-03-15T01:39:10.070Z,7.69
2019-03-15T01:41:02.385Z,7.75
2019-03-15T01:42:02.386Z,7.60
2019-03-15T01:43:55.280Z,7.74
2019-03-15T01:44:55.289Z,7.69
2019-03-15T01:46:48.197Z,7.64
2019-03-15T01:47:48.200Z,7.69
2019-03-15T01:49:44.344Z,7.64
2019-03-15T01:50:41.113Z,7.72
2019-03-15T01:52:34.008Z,7.64
2019-03-15T01:53:34.015Z,7.64
2019-03-15T01:55:26.912Z,7.64
2019-03-15T01:56:26.914Z,7.74
2019-03-15T01:58:19.811Z,7.72
2019-03-15T01:59:19.823Z,7.61
2019-03-15T02:01:12.732Z,7.64
2019-03-15T02:02:12.729Z,7.61
2019-03-15T02:04:05.839Z,7.71
2019-03-15T02:05:05.635Z,7.63
2019-03-15T02:06:59.033Z,7.67
2019-03-15T02:07:59.082Z,7.60
2019-03-15T02:09:51.932Z,7.68
2019-03-15T02:10:51.943Z,7.67
2019-03-15T02:12:44.844Z,7.61
2019-03-15T02:13:44.848Z,7.68
2019-03-15T02:15:37.765Z,7.61
2019-03-15T02:16:37.754Z,7.60
2019-03-15T02:18:31.144Z,7.67
2019-03-15T02:19:31.155Z,7.61
2019-03-15T02:21:24.552Z,7.64
2019-03-15T02:22:24.557Z,7.64
2019-03-15T02:24:17.455Z,7.79
2019-03-15T02:25:17.460Z,7.77
2019-03-15T02:27:11.362Z,7.82
2019-03-15T02:28:11.362Z,7.80
2019-03-15T02:30:04.258Z,7.89
2019-03-15T02:31:04.267Z,7.93
2019-03-15T02:32:57.665Z,7.92
2019-03-15T02:33:57.669Z,7.87
2019-03-15T02:35:50.575Z,7.85
2019-03-15T02:36:50.572Z,7.92
2019-03-15T02:38:43.965Z,7.93
2019-03-15T02:39:43.976Z,7.90
2019-03-15T02:41:36.884Z,7.86
2019-03-15T02:42:36.887Z,7.87
2019-03-15T02:44:29.780Z,7.89
2019-03-15T02:45:29.791Z,7.97
2019-03-15T02:47:22.696Z,7.92
2019-03-15T02:48:22.698Z,7.90
2019-03-15T02:50:15.594Z,7.87
2019-03-15T02:51:15.606Z,7.90
2019-03-15T02:53:09.069Z,7.82
2019-03-15T02:54:08.508Z,7.80
2019-03-15T02:56:01.909Z,7.79
2019-03-15T02:57:01.909Z,7.74
2019-03-15T02:58:54.818Z,7.75
2019-03-15T02:59:54.817Z,7.75
2019-03-15T03:01:47.721Z,7.77
2019-03-15T03:02:47.773Z,7.83
2019-03-15T03:04:41.338Z,7.85
2019-03-15T03:05:41.123Z,7.85
2019-03-15T03:07:34.032Z,7.95
2019-03-15T03:08:34.040Z,7.87
2019-03-15T03:10:26.937Z,7.93
2019-03-15T03:11:26.940Z,7.89
2019-03-15T03:13:20.341Z,7.95
2019-03-15T03:14:20.345Z,7.89
2019-03-15T03:16:13.251Z,7.92
2019-03-15T03:17:13.822Z,7.98
2019-03-15T03:19:06.148Z,7.90
2019-03-15T03:20:06.154Z,7.92
2019-03-15T03:21:59.553Z,7.90
2019-03-15T03:22:59.563Z,7.95
2019-03-15T03:24:52.454Z,7.95
2019-03-15T03:25:52.462Z,7.97
2019-03-15T03:27:45.367Z,7.97
2019-03-15T03:28:45.370Z,8.00
2019-03-15T03:30:38.269Z,8.00
2019-03-15T03:31:38.278Z,8.01
2019-03-15T03:33:31.194Z,8.10
2019-03-15T03:34:31.187Z,8.05
2019-03-15T03:36:24.089Z,7.95
2019-03-15T03:37:24.240Z,8.01
2019-03-15T03:39:17.484Z,8.05
2019-03-15T03:40:20.150Z,8.02
2019-03-15T03:42:10.394Z,8.00
2019-03-15T03:43:10.443Z,7.93
2019-03-15T03:45:03.298Z,8.01
2019-03-15T03:46:03.320Z,8.07
2019-03-15T03:47:56.212Z,8.00
2019-03-15T03:48:56.215Z,8.02
2019-03-15T03:50:49.112Z,8.00
2019-03-15T03:51:49.121Z,8.04
2019-03-15T03:53:42.028Z,8.07
2019-03-15T03:54:42.033Z,8.01
2019-03-15T03:56:34.933Z,8.05
2019-03-15T03:57:34.956Z,8.05
2019-03-15T03:59:27.836Z,8.18
2019-03-15T04:00:27.892Z,8.12
2019-03-15T04:02:20.897Z,8.16
2019-03-15T04:03:20.747Z,8.10
2019-03-15T04:05:14.141Z,8.11
2019-03-15T04:06:14.152Z,8.05
2019-03-15T04:08:07.545Z,8.05
2019-03-15T04:09:07.551Z,8.04
2019-03-15T04:11:00.845Z,7.98
2019-03-15T04:12:00.459Z,7.95
2019-03-15T04:13:53.365Z,7.93
2019-03-15T04:14:53.365Z,7.87
2019-03-15T04:16:46.267Z,7.97
2019-03-15T04:17:46.272Z,8.01
2019-03-15T04:19:39.165Z,7.98
2019-03-15T04:20:39.175Z,8.00
2019-03-15T04:22:32.085Z,7.93
2019-03-15T04:23:32.085Z,7.95
2019-03-15T04:25:24.982Z,8.05
2019-03-15T04:26:24.991Z,7.98
2019-03-15T04:28:17.897Z,8.00
2019-03-15T04:29:17.899Z,8.01
2019-03-15T04:31:10.797Z,7.97
2019-03-15T04:32:10.809Z,7.93
2019-03-15T04:34:03.714Z,7.93
2019-03-15T04:35:03.714Z,7.95
2019-03-15T04:36:56.617Z,7.92
2019-03-15T04:37:56.621Z,7.86
2019-03-15T04:39:49.520Z,7.92
2019-03-15T04:40:49.530Z,7.87
2019-03-15T04:42:42.431Z,7.93
2019-03-15T04:43:42.437Z,7.83
2019-03-15T04:45:35.330Z,7.89
2019-03-15T04:46:35.339Z,7.86
2019-03-15T04:48:28.241Z,7.85
2019-03-15T04:49:28.244Z,7.86
2019-03-15T04:51:21.145Z,7.93
2019-03-15T04:52:21.153Z,8.00
2019-03-15T04:54:14.555Z,7.97
2019-03-15T04:55:14.555Z,8.01
2019-03-15T04:57:07.632Z,8.05
2019-03-15T04:58:07.463Z,8.11
2019-03-15T05:00:00.408Z,8.02
2019-03-15T05:01:00.369Z,8.05
2019-03-15T05:02:53.273Z,8.05
2019-03-15T05:03:53.276Z,8.05
2019-03-15T05:05:46.667Z,8.16
2019-03-15T05:06:46.678Z,8.12
2019-03-15T05:08:39.596Z,8.20
2019-03-15T05:09:39.585Z,8.25
2019-03-15T05:11:32.493Z,8.34
2019-03-15T05:12:32.495Z,8.28
2019-03-15T05:14:25.893Z,8.33
2019-03-15T05:15:25.899Z,8.29
2019-03-15T05:17:18.818Z,8.40
2019-03-15T05:18:18.809Z,8.38
2019-03-15T05:20:11.707Z,8.38
2019-03-15T05:21:11.713Z,8.50
2019-03-15T05:23:04.628Z,8.50
2019-03-15T05:24:04.622Z,8.48
2019-03-15T05:25:57.523Z,8.45
2019-03-15T05:26:57.740Z,8.48
2019-03-15T05:28:50.435Z,8.56
2019-03-15T05:29:50.438Z,8.53
2019-03-15T05:31:43.407Z,8.55
2019-03-15T05:32:43.385Z,8.55
2019-03-15T05:34:36.292Z,8.55
2019-03-15T05:35:36.299Z,8.52
2019-03-15T05:37:29.217Z,8.48
2019-03-15T05:38:29.203Z,8.56
2019-03-15T05:40:22.105Z,8.65
2019-03-15T05:41:22.254Z,8.71
2019-03-15T05:43:15.019Z,8.59
2019-03-15T05:44:15.026Z,8.61
2019-03-15T05:46:07.923Z,8.63
2019-03-15T05:47:07.930Z,8.50
2019-03-15T05:49:00.837Z,8.55
2019-03-15T05:50:00.840Z,8.70
2019-03-15T05:51:53.743Z,8.68
2019-03-15T05:52:53.750Z,8.68
2019-03-15T05:54:46.653Z,8.65
2019-03-15T05:55:46.658Z,8.63
2019-03-15T05:57:39.557Z,8.65
2019-03-15T05:58:39.567Z,8.68
2019-03-15T06:00:32.471Z,8.63
2019-03-15T06:01:32.474Z,8.58
2019-03-15T06:03:25.378Z,8.66
2019-03-15T06:04:25.383Z,8.66
2019-03-15T06:06:18.279Z,8.53
2019-03-15T06:07:18.287Z,8.59
2019-03-15T06:09:11.198Z,8.62
2019-03-15T06:10:11.199Z,8.63
2019-03-15T06:12:04.101Z,8.53
2019-03-15T06:13:04.110Z,8.53
2019-03-15T06:14:57.013Z,8.52
2019-03-15T06:15:57.017Z,8.55
2019-03-15T06:17:49.923Z,8.65
2019-03-15T06:18:49.923Z,8.65
2019-03-15T06:20:42.831Z,8.66
2019-03-15T06:21:42.834Z,8.66
2019-03-15T06:23:35.740Z,8.63
2019-03-15T06:24:35.742Z,8.63
2019-03-15T06:26:29.146Z,8.55
2019-03-15T06:27:31.189Z,8.65
2019-03-15T06:29:22.063Z,8.61
2019-03-15T06:30:22.070Z,8.56
2019-03-15T06:32:14.991Z,8.53
2019-03-15T06:33:14.980Z,8.68
2019-03-15T06:35:07.886Z,8.66
2019-03-15T06:36:07.890Z,8.70
2019-03-15T06:38:00.784Z,8.70
2019-03-15T06:39:00.796Z,8.70
2019-03-15T06:40:53.700Z,8.63
2019-03-15T06:41:53.798Z,8.65
2019-03-15T06:43:46.612Z,8.70
2019-03-15T06:44:57.404Z,8.70
2019-03-15T06:46:39.511Z,8.77
2019-03-15T06:47:39.520Z,8.80
2019-03-15T06:49:32.425Z,8.84
2019-03-15T06:50:32.429Z,8.92
2019-03-15T06:52:25.335Z,8.89
2019-03-15T06:53:25.339Z,8.87
2019-03-15T06:55:18.248Z,8.96
2019-03-15T06:56:18.249Z,8.98
2019-03-15T06:58:11.146Z,8.98
2019-03-15T06:59:11.158Z,9.02
2019-03-15T07:01:04.566Z,8.94
2019-03-15T07:02:04.569Z,8.95
2019-03-15T07:03:57.474Z,8.95
2019-03-15T07:04:57.477Z,9.01
2019-03-15T07:06:50.886Z,8.94
2019-03-15T07:07:50.897Z,8.96
2019-03-15T07:09:44.308Z,8.96
2019-03-15T07:10:44.510Z,9.02
2019-03-15T07:12:39.943Z,9.11
2019-03-15T07:13:37.212Z,9.01
2019-03-15T07:15:30.614Z,9.11
2019-03-15T07:16:30.618Z,9.14
2019-03-15T07:18:24.018Z,9.17
2019-03-15T07:19:27.518Z,9.13
2019-03-15T07:21:17.433Z,9.29
2019-03-15T07:22:19.869Z,9.23
2019-03-15T07:24:10.359Z,9.13
2019-03-15T07:25:10.373Z,9.10
2019-03-15T07:27:12.958Z,9.20
2019-03-15T07:28:03.261Z,9.13
2019-03-15T07:29:59.825Z,9.14
2019-03-15T07:30:56.671Z,9.21
2019-03-15T07:32:49.571Z,9.14
2019-03-15T07:33:49.739Z,9.21
2019-03-15T07:35:42.975Z,9.21
2019-03-15T07:36:42.981Z,9.11
2019-03-15T07:38:36.374Z,9.23
2019-03-15T07:39:36.384Z,9.14
2019-03-15T07:41:29.289Z,9.18
2019-03-15T07:42:29.292Z,9.21
2019-03-15T07:44:22.200Z,9.28
2019-03-15T07:45:22.203Z,9.24
2019-03-15T07:47:15.109Z,9.13
2019-03-15T07:48:22.460Z,9.18
2019-03-15T07:50:08.516Z,9.18
2019-03-15T07:51:08.523Z,9.23
2019-03-15T07:53:01.429Z,9.21
2019-03-15T07:54:01.441Z,9.29
2019-03-15T07:55:54.349Z,9.23
2019-03-15T07:56:54.351Z,9.26
2019-03-15T07:58:47.750Z,9.24
2019-03-15T07:59:47.765Z,9.23
2019-03-15T08:01:40.671Z,9.26
2019-03-15T08:02:40.672Z,9.21
2019-03-15T08:04:36.015Z,9.21
2019-03-15T08:05:33.584Z,9.24
2019-03-15T08:07:35.704Z,9.31
2019-03-15T08:08:26.517Z,9.24
2019-03-15T08:10:19.407Z,9.28
2019-03-15T08:11:19.412Z,9.33
2019-03-15T08:13:12.313Z,9.31
2019-03-15T08:14:12.324Z,9.31
2019-03-15T08:16:05.733Z,9.23
2019-03-15T08:17:05.734Z,9.21
2019-03-15T08:18:58.638Z,9.29
2019-03-15T08:19:58.647Z,9.35
2019-03-15T08:21:51.556Z,9.31
2019-03-15T08:22:51.558Z,9.35
2019-03-15T08:24:51.325Z,9.39
2019-03-15T08:25:44.967Z,9.38
2019-03-15T08:27:37.874Z,9.42
2019-03-15T08:28:37.880Z,9.42
2019-03-15T08:30:30.786Z,9.46
2019-03-15T08:31:30.789Z,9.48
2019-03-15T08:33:23.692Z,9.54
2019-03-15T08:34:23.701Z,9.51
2019-03-15T08:36:20.113Z,9.53
2019-03-15T08:37:17.109Z,9.47
2019-03-15T08:39:10.012Z,9.51
2019-03-15T08:40:10.021Z,9.60
2019-03-15T08:42:03.425Z,9.66
2019-03-15T08:43:03.431Z,9.51
2019-03-15T08:44:56.342Z,9.58
2019-03-15T08:45:56.343Z,9.60
2019-03-15T08:47:49.247Z,9.69
2019-03-15T08:48:49.258Z,9.61
2019-03-15T08:50:42.174Z,9.56
2019-03-15T08:51:42.171Z,9.53
2019-03-15T08:53:35.072Z,9.53
2019-03-15T08:54:35.085Z,9.64
2019-03-15T08:56:28.487Z,9.53
2019-03-15T08:57:28.493Z,9.64
2019-03-15T08:59:21.397Z,9.58
2019-03-15T09:00:21.408Z,9.48
2019-03-15T09:02:14.814Z,9.51
2019-03-15T09:03:27.318Z,9.58
2019-03-15T09:05:08.223Z,9.69
2019-03-15T09:06:08.227Z,9.61
2019-03-15T09:08:01.622Z,9.56
2019-03-15T09:09:01.635Z,9.57
2019-03-15T09:10:54.545Z,9.60
2019-03-15T09:11:54.548Z,9.66
2019-03-15T09:13:49.309Z,9.61
2019-03-15T09:14:47.955Z,9.56
2019-03-15T09:16:41.358Z,9.64
2019-03-15T09:17:41.378Z,9.65
2019-03-15T09:19:34.266Z,9.68
2019-03-15T09:20:34.280Z,9.69
2019-03-15T09:22:27.191Z,9.75
2019-03-15T09:23:27.197Z,9.79
2019-03-15T09:25:20.848Z,9.84
2019-03-15T09:26:20.114Z,9.86
2019-03-15T09:28:13.011Z,9.84
2019-03-15T09:29:13.023Z,9.84
2019-03-15T09:31:07.540Z,9.86
2019-03-15T09:32:09.182Z,9.91
2019-03-15T09:33:58.843Z,9.89
2019-03-15T09:34:58.938Z,9.91
2019-03-15T09:36:51.766Z,9.89
2019-03-15T09:37:51.768Z,9.94
2019-03-15T09:39:44.670Z,9.86
2019-03-15T09:40:44.681Z,9.75
2019-03-15T09:42:38.084Z,9.91
2019-03-15T09:43:38.090Z,9.96
2019-03-15T09:45:30.999Z,9.96
2019-03-15T09:46:31.004Z,9.96
2019-03-15T09:48:24.401Z,10.08
2019-03-15T09:49:24.413Z,9.99
2019-03-15T09:51:17.817Z,10.01
2019-03-15T09:52:17.820Z,10.04
2019-03-15T09:54:11.219Z,9.93
2019-03-15T09:55:11.232Z,9.87
2019-03-15T09:57:04.152Z,9.99
2019-03-15T09:58:04.148Z,9.96
2019-03-15T09:59:57.547Z,9.96
2019-03-15T10:00:57.947Z,9.99
2019-03-15T10:02:50.962Z,9.96
2019-03-15T10:03:50.968Z,9.97
2019-03-15T10:05:44.369Z,10.04
2019-03-15T10:06:44.373Z,10.04
2019-03-15T10:08:37.770Z,10.02
2019-03-15T10:09:45.819Z,10.02
2019-03-15T10:11:31.186Z,10.04
2019-03-15T10:12:31.194Z,10.01
2019-03-15T10:14:24.589Z,10.12
2019-03-15T10:15:26.351Z,10.15
2019-03-15T10:17:17.513Z,9.99
2019-03-15T10:18:17.516Z,9.94
2019-03-15T10:20:12.508Z,9.86
2019-03-15T10:21:10.431Z,9.94
2019-03-15T10:23:06.322Z,10.04
2019-03-15T10:24:03.346Z,9.93
2019-03-15T10:25:56.258Z,10.02
2019-03-15T10:26:56.258Z,9.99
2019-03-15T10:28:49.655Z,9.97
2019-03-15T10:29:49.667Z,10.04
2019-03-15T10:31:42.581Z,10.15
2019-03-15T10:32:42.583Z,10.12
2019-03-15T10:34:35.864Z,10.23
2019-03-15T10:35:35.495Z,10.26
2019-03-15T10:37:28.412Z,10.30
2019-03-15T10:38:28.411Z,10.30
2019-03-15T10:40:21.812Z,10.27
2019-03-15T10:41:21.823Z,10.30
2019-03-15T10:43:15.236Z,10.25
2019-03-15T10:44:15.243Z,10.38
2019-03-15T10:46:08.152Z,10.36
2019-03-15T10:47:08.176Z,10.38
2019-03-15T10:49:01.554Z,10.44
2019-03-15T10:50:01.565Z,10.47
2019-03-15T10:51:54.990Z,10.53
2019-03-15T10:52:54.974Z,10.60
2019-03-15T10:54:48.384Z,10.55
2019-03-15T10:55:59.639Z,10.63
2019-03-15T10:57:41.299Z,10.64
2019-03-15T10:58:41.304Z,10.66
2019-03-15T11:00:34.210Z,10.67
2019-03-15T11:01:34.219Z,10.63
2019-03-15T11:03:27.131Z,10.82
2019-03-15T11:04:27.136Z,10.70
2019-03-15T11:06:20.049Z,10.78
2019-03-15T11:07:20.055Z,10.78
2019-03-15T11:09:13.451Z,10.68
2019-03-15T11:10:13.467Z,10.71
2019-03-15T11:12:06.373Z,10.89
2019-03-15T11:13:06.377Z,10.99
2019-03-15T11:14:59.292Z,10.99
2019-03-15T11:15:59.293Z,11.04
2019-03-15T11:17:52.209Z,11.04
2019-03-15T11:18:52.216Z,11.11
2019-03-15T11:20:45.611Z,11.21
2019-03-15T11:21:45.626Z,11.24
2019-03-15T11:23:38.536Z,11.27
2019-03-15T11:24:38.539Z,11.32
2019-03-15T11:26:31.946Z,11.33
2019-03-15T11:27:31.954Z,11.39
2019-03-15T11:29:25.349Z,11.43
2019-03-15T11:30:25.363Z,11.43
2019-03-15T11:32:18.276Z,11.40
2019-03-15T11:33:18.280Z,11.44
2019-03-15T11:35:11.183Z,11.54
2019-03-15T11:36:11.193Z,11.55
2019-03-15T11:38:04.105Z,11.72
2019-03-15T11:39:04.113Z,11.73
2019-03-15T11:40:57.510Z,11.72
2019-03-15T11:41:57.524Z,11.86
2019-03-15T11:43:50.435Z,11.99
2019-03-15T11:44:50.441Z,12.02
2019-03-15T11:46:43.851Z,12.20
2019-03-15T11:48:01.770Z,12.17
2019-03-15T11:49:36.763Z,12.20
2019-03-15T11:50:36.775Z,12.34
2019-03-15T11:52:29.689Z,12.47
2019-03-15T11:53:29.694Z,12.57
2019-03-15T11:55:22.598Z,12.67
2019-03-15T11:56:27.192Z,12.75
2019-03-15T11:58:15.533Z,12.90
2019-03-15T11:59:15.532Z,12.95
2019-03-15T12:01:08.938Z,13.08
2019-03-15T12:02:10.759Z,13.10
2019-03-15T12:04:01.862Z,13.14
2019-03-15T12:05:01.874Z,13.25
2019-03-15T12:06:55.276Z,13.30
2019-03-15T12:07:55.300Z,13.41
2019-03-15T12:09:48.196Z,13.48
2019-03-15T12:10:48.213Z,13.49
2019-03-15T12:12:41.613Z,13.67
2019-03-15T12:13:41.622Z,13.69
2019-03-15T12:15:36.295Z,13.64
2019-03-15T12:16:35.039Z,13.73
2019-03-15T12:18:27.954Z,13.70
2019-03-15T12:19:27.961Z,13.79
2019-03-15T12:21:20.870Z,13.87
2019-03-15T12:22:20.883Z,13.99
2019-03-15T12:24:14.294Z,14.02
2019-03-15T12:25:14.300Z,14.07
2019-03-15T12:27:07.219Z,14.10
2019-03-15T12:28:07.227Z,14.10
2019-03-15T12:30:00.385Z,14.17
2019-03-15T12:31:00.150Z,14.18
2019-03-15T12:32:53.065Z,14.21
2019-03-15T12:33:53.080Z,14.14
2019-03-15T12:35:45.982Z,14.07
2019-03-15T12:36:45.996Z,14.02
2019-03-15T12:38:38.913Z,14.00
2019-03-15T12:39:38.969Z,14.02
2019-03-15T12:41:31.831Z,13.95
2019-03-15T12:42:31.845Z,13.96
2019-03-15T12:44:24.763Z,13.91
2019-03-15T12:45:24.770Z,13.88
2019-03-15T12:47:18.182Z,13.77
2019-03-15T12:48:18.198Z,13.71
2019-03-15T12:50:11.593Z,13.77
2019-03-15T12:51:11.613Z,13.75
2019-03-15T12:53:05.021Z,13.67
2019-03-15T12:54:05.032Z,13.60
2019-03-15T12:55:58.437Z,13.44
2019-03-15T12:56:58.446Z,13.42
2019-03-15T12:58:51.876Z,13.30
2019-03-15T12:59:51.861Z,13.28
2019-03-15T13:01:45.262Z,13.33
2019-03-15T13:02:45.281Z,13.32
2019-03-15T13:04:38.775Z,13.14
2019-03-15T13:05:38.695Z,13.23
2019-03-15T13:07:32.103Z,13.33
2019-03-15T13:08:32.108Z,13.32
2019-03-15T13:10:25.515Z,13.28
2019-03-15T13:11:25.523Z,13.30
2019-03-15T13:13:18.928Z,13.30
2019-03-15T13:14:18.962Z,13.36
2019-03-15T13:16:12.349Z,13.30
2019-03-15T13:17:12.356Z,13.42
2019-03-15T13:19:05.767Z,13.44
2019-03-15T13:20:05.777Z,13.39
2019-03-15T13:21:59.186Z,13.39
2019-03-15T13:22:59.203Z,13.32
2019-03-15T13:24:52.614Z,13.33
2019-03-15T13:25:54.705Z,13.29
2019-03-15T13:27:46.025Z,13.42
2019-03-15T13:28:46.034Z,13.52
2019-03-15T13:30:39.437Z,13.48
2019-03-15T13:31:39.452Z,13.55
2019-03-15T13:33:32.882Z,13.49
2019-03-15T13:34:32.865Z,13.48
2019-03-15T13:36:26.265Z,13.39
2019-03-15T13:37:26.280Z,13.42
2019-03-15T13:39:19.687Z,13.39
2019-03-15T13:40:19.697Z,13.33
2019-03-15T13:42:13.096Z,13.28
2019-03-15T13:43:13.111Z,13.26
2019-03-15T13:45:06.568Z,13.33
2019-03-15T13:46:06.527Z,13.32
2019-03-15T13:47:59.935Z,13.30
2019-03-15T13:48:59.947Z,13.26
2019-03-15T13:50:53.350Z,13.17
2019-03-15T13:51:53.357Z,13.25
2019-03-15T13:53:46.764Z,13.20
2019-03-15T13:54:46.772Z,13.15
2019-03-15T13:56:40.173Z,13.17
2019-03-15T13:57:40.188Z,13.20
2019-03-15T13:59:33.098Z,13.17
2019-03-15T14:00:33.106Z,13.17
2019-03-15T14:02:26.010Z,13.15
2019-03-15T14:03:26.025Z,13.15
2019-03-15T14:05:18.942Z,13.26
2019-03-15T14:06:18.940Z,13.25
2019-03-15T14:08:12.314Z,13.36
2019-03-15T14:09:11.857Z,13.28
2019-03-15T14:11:04.767Z,13.41
2019-03-15T14:12:04.775Z,13.33
2019-03-15T14:13:57.699Z,13.42
2019-03-15T14:14:57.695Z,13.45
2019-03-15T14:16:50.648Z,13.39
2019-03-15T14:17:50.620Z,13.46
2019-03-15T14:19:43.537Z,13.38
2019-03-15T14:20:43.546Z,13.33
2019-03-15T14:22:36.446Z,13.33
2019-03-15T14:23:36.482Z,13.30
2019-03-15T14:25:29.380Z,13.28
2019-03-15T14:26:29.381Z,13.39
2019-03-15T14:28:22.291Z,13.42
2019-03-15T14:29:22.300Z,13.46
2019-03-15T14:31:15.205Z,13.42
2019-03-15T14:32:15.218Z,13.25
2019-03-15T14:34:08.134Z,13.11
2019-03-15T14:35:08.137Z,13.00
2019-03-15T14:37:01.204Z,12.41
2019-03-15T14:38:01.056Z,12.13
2019-03-15T14:39:54.271Z,11.75
2019-03-15T14:40:54.055Z,11.64
2019-03-15T14:42:47.565Z,11.14
2019-03-15T14:43:47.473Z,10.94
2019-03-15T14:45:40.867Z,10.81
2019-03-15T14:46:40.871Z,10.73
2019-03-15T14:48:34.381Z,10.73
2019-03-15T14:49:34.284Z,10.78
2019-03-15T14:51:27.684Z,10.76
2019-03-15T14:52:27.693Z,10.82
2019-03-15T14:54:21.099Z,10.76
2019-03-15T14:55:21.107Z,10.84
2019-03-15T14:57:14.504Z,10.86
2019-03-15T14:58:14.517Z,10.78
2019-03-15T15:00:10.917Z,10.89
2019-03-15T15:01:07.927Z,10.89
2019-03-15T15:03:01.346Z,10.86
2019-03-15T15:04:01.346Z,10.91
2019-03-15T15:05:54.761Z,10.82
2019-03-15T15:06:54.754Z,10.82
2019-03-15T15:08:48.157Z,10.89
2019-03-15T15:09:48.167Z,10.92
2019-03-15T15:11:41.558Z,10.85
2019-03-15T15:12:41.576Z,10.86
2019-03-15T15:14:34.977Z,10.81
2019-03-15T15:15:34.979Z,10.78
2019-03-15T15:17:28.376Z,10.76
2019-03-15T15:18:28.401Z,10.84
2019-03-15T15:20:21.806Z,10.82
2019-03-15T15:21:21.805Z,10.85
2019-03-15T15:23:15.205Z,10.81
2019-03-15T15:24:15.219Z,10.81
2019-03-15T15:26:08.628Z,10.99
2019-03-15T15:27:08.633Z,10.94
2019-03-15T15:29:02.045Z,10.97
2019-03-15T15:30:02.054Z,10.86
2019-03-15T15:31:54.962Z,10.91
2019-03-15T15:32:54.965Z,10.88
2019-03-15T15:34:48.376Z,10.91
2019-03-15T15:35:48.393Z,10.86
2019-03-15T15:37:41.771Z,10.89
2019-03-15T15:38:41.783Z,10.91
2019-03-15T15:40:35.185Z,10.84
2019-03-15T15:41:35.191Z,10.74
2019-03-15T15:43:28.610Z,10.81
2019-03-15T15:44:28.600Z,10.82
2019-03-15T15:46:21.997Z,10.86
2019-03-15T15:47:22.007Z,10.89
2019-03-15T15:49:15.420Z,10.92
2019-03-15T15:50:15.421Z,10.81
2019-03-15T15:52:08.814Z,10.96
2019-03-15T15:53:11.121Z,10.99
2019-03-15T15:55:02.228Z,11.02
2019-03-15T15:56:02.237Z,11.00
2019-03-15T15:57:55.135Z,11.07
2019-03-15T15:58:55.146Z,11.17
2019-03-15T16:00:48.058Z,11.07
2019-03-15T16:01:48.061Z,11.14
2019-03-15T16:03:40.961Z,11.09
2019-03-15T16:04:40.976Z,11.15
2019-03-15T16:06:33.885Z,11.07
2019-03-15T16:07:33.888Z,11.06
2019-03-15T16:09:26.795Z,11.07
2019-03-15T16:10:26.805Z,11.17
2019-03-15T16:12:19.702Z,11.10
2019-03-15T16:13:19.719Z,11.15
2019-03-15T16:15:12.624Z,11.10
2019-03-15T16:16:12.629Z,11.15
2019-03-15T16:18:05.639Z,11.14
2019-03-15T16:19:05.631Z,11.15
2019-03-15T16:20:58.477Z,11.15
2019-03-15T16:21:58.458Z,11.18
2019-03-15T16:23:51.360Z,11.17
2019-03-15T16:24:51.370Z,11.19
2019-03-15T16:26:44.781Z,11.09
2019-03-15T16:27:44.789Z,11.06
2019-03-15T16:29:38.188Z,11.11
2019-03-15T16:30:38.193Z,11.09
2019-03-15T16:32:31.589Z,11.10
2019-03-15T16:33:31.601Z,11.09
2019-03-15T16:35:24.511Z,11.09
2019-03-15T16:36:24.514Z,11.02
2019-03-15T16:38:17.413Z,11.02
2019-03-15T16:39:17.427Z,11.06
2019-03-15T16:41:10.329Z,11.07
2019-03-15T16:42:10.336Z,11.06
2019-03-15T16:44:03.238Z,11.09
2019-03-15T16:45:03.265Z,11.14
2019-03-15T16:46:56.158Z,11.07
2019-03-15T16:47:56.173Z,11.07
2019-03-15T16:49:49.072Z,11.06
2019-03-15T16:50:51.716Z,11.04
2019-03-15T16:52:41.988Z,10.97
2019-03-15T16:53:42.004Z,11.00
2019-03-15T16:55:35.434Z,11.03
2019-03-15T16:56:35.416Z,11.06
2019-03-15T16:58:29.411Z,11.04
2019-03-15T16:59:29.325Z,11.03
2019-03-15T17:01:22.232Z,10.91
2019-03-15T17:02:22.244Z,10.97
2019-03-15T17:04:15.137Z,10.99
2019-03-15T17:05:15.153Z,10.96
2019-03-15T17:07:08.552Z,10.92
2019-03-15T17:08:08.557Z,11.03
2019-03-15T17:10:01.467Z,11.04
2019-03-15T17:11:01.473Z,11.10
2019-03-15T17:12:55.825Z,11.19
2019-03-15T17:13:54.391Z,11.22
2019-03-15T17:15:47.330Z,11.14
2019-03-15T17:16:47.329Z,11.18
2019-03-15T17:18:40.218Z,11.15
2019-03-15T17:19:40.211Z,11.17
2019-03-15T17:21:33.119Z,11.11
2019-03-15T17:22:33.124Z,11.17
2019-03-15T17:24:26.033Z,11.17
2019-03-15T17:25:26.036Z,11.17
2019-03-15T17:27:19.093Z,11.07
2019-03-15T17:28:19.093Z,11.17
2019-03-15T17:30:12.001Z,11.04
2019-03-15T17:31:12.010Z,11.09
2019-03-15T17:33:06.305Z,11.14
2019-03-15T17:34:04.924Z,11.04
2019-03-15T17:35:57.831Z,11.04
2019-03-15T17:37:06.406Z,10.91
2019-03-15T17:38:50.729Z,10.99
2019-03-15T17:39:50.867Z,10.89
2019-03-15T17:41:43.664Z,11.03
2019-03-15T17:42:43.663Z,10.94
2019-03-15T17:44:37.065Z,10.94
2019-03-15T17:45:37.074Z,10.92
2019-03-15T17:47:32.166Z,10.91
2019-03-15T17:48:30.477Z,10.92
2019-03-15T17:50:23.890Z,10.88
2019-03-15T17:51:23.905Z,10.76
2019-03-15T17:53:16.791Z,10.81
2019-03-15T17:54:16.798Z,10.79
2019-03-15T17:56:10.219Z,10.76
2019-03-15T17:57:10.233Z,10.71
2019-03-15T17:59:12.273Z,10.67
2019-03-15T18:00:03.626Z,10.71
2019-03-15T18:01:57.026Z,10.63
2019-03-15T18:02:57.032Z,10.63
2019-03-15T18:04:50.427Z,10.63
2019-03-15T18:05:50.947Z,10.61
2019-03-15T18:07:43.891Z,10.64
2019-03-15T18:08:43.854Z,10.61
2019-03-15T18:10:37.476Z,10.63
2019-03-15T18:11:37.316Z,10.60
2019-03-15T18:13:30.674Z,10.59
2019-03-15T18:14:30.664Z,10.51
2019-03-15T18:16:24.064Z,10.60
2019-03-15T18:17:24.071Z,10.59
2019-03-15T18:19:17.466Z,10.55
2019-03-15T18:20:17.480Z,10.55
2019-03-15T18:22:10.384Z,10.53
2019-03-15T18:23:10.387Z,10.40
2019-03-15T18:25:03.783Z,10.48
2019-03-15T18:26:03.795Z,10.42
2019-03-15T18:27:56.700Z,10.38
2019-03-15T18:28:56.704Z,10.36
2019-03-15T18:30:49.616Z,10.41
2019-03-15T18:31:49.618Z,10.36
2019-03-15T18:33:43.006Z,10.32
2019-03-15T18:34:43.019Z,10.34
2019-03-15T18:36:36.418Z,10.36
2019-03-15T18:37:36.423Z,10.42
2019-03-15T18:39:29.817Z,10.25
2019-03-15T18:40:29.831Z,10.30
2019-03-15T18:42:23.230Z,10.32
2019-03-15T18:43:23.235Z,10.22
2019-03-15T18:45:16.627Z,10.22
2019-03-15T18:46:16.640Z,10.25
2019-03-15T18:48:09.545Z,10.17
2019-03-15T18:49:09.550Z,10.20
2019-03-15T18:51:02.456Z,10.08
2019-03-15T18:52:02.460Z,10.12
2019-03-15T18:53:55.360Z,10.12